Achal, Afghanistan

9:12 AM AFT on January 23, 2017 (GMT +0430)
Jalalabad | | Change Station

Elev 1903 ft 34.43 °N, 70.47 °E | Updated 47 minutes ago

Overcast
Overcast
46 °F
Feels Like 46 °F
N
1
Wind Variable Wind from NE

Today
High -- | Low -- °F
--% Chance of Precip.
Yesterday
High -- | Low -- °F
Precip. -- in
Pressure 30.33 in
Visibility -9999.0 miles
Clouds Mostly Cloudy 15000 ft
Dew Point 40 °F
Humidity 79%
Rainfall 0.00 in
Snow Depth Not available.
6:50 AM 5:05 PM
Waning Crescent, 21% visible
METAR OAJL 230355Z 05001KT 3200 BR BKN150 08/04 A3029 RMK AO2A SLP271 T00760042 $
Pressure 30.33 in
Visibility -9999.0 miles
Clouds Mostly Cloudy 15000 ft
Dew Point 40 °F
Humidity 79%
Rainfall 0.00 in
Snow Depth Not available.
6:50 AM 5:05 PM
Waning Crescent, 21% visible
METAR OAJL 230355Z 05001KT 3200 BR BKN150 08/04 A3029 RMK AO2A SLP271 T00760042 $

Get Your Daily Forecast Email!

Thanks for signing up!

Be on the lookout for a verification email in your inbox.

You'll start receiving the daily forecast at 8 AM.

×

10-Day Weather Forecast

No radar image for this location.
×

Almanac

Astronomy

Jan. 23, 2017 Rise Set
Actual Time
Civil Twilight
Nautical Twilight
Astronomical Twilight
Moon
Length of Visible Light
Length of Day
Tomorrow will be .
, % of the Moon is Illuminated

Today's Extremes

Country Highs Country Lows

Community

WunderPhotos

Upload Photos

1,962,540 photos uploaded!

WunderBlog® & News

Nearby

Air Quality

  Air Quality AQ Index Pollutant
Not available.

Snow Depth

Station Depth Elevation

Earthquake Activity

City Distance Mag. Time & Date
Minimum magnitude displayed is 2.5.

Coastal Water Temperatures

Place Temperature

Stations

Nearby Weather Stations

Station Location Temp. Windchill Dew Point Humidity Wind Precip. Elev Updated Type